Time;durP1;ratioP1;P1;durP2;ratioP2;P2;SDS_P1;SDS_P2;PMS_P1;PMS_P2;Temp;Humidity;BMP_temperature;BMP_pressure;BME280_temperature;BME280_humidity;BME280_pressure;Samples;Min_cycle;Max_cycle;Signal;HPM_P1;HPM_P2
2024/01/09 00:00:01;;;;;;;;;42.75;36.50;;;;;-5.94;77.69;99862.03;5023774;28;8841;-75
2024/01/09 00:02:32;;;;;;;;;34.00;30.50;;;;;-5.82;77.09;99860.06;5023871;28;8867;-75
2024/01/09 00:05:01;;;;;;;;;35.25;34.50;;;;;-6.01;77.34;99870.19;5021508;28;8867;-75
2024/01/09 00:07:30;;;;;;;;;43.50;33.25;;;;;-6.07;78.04;99872.47;5031604;28;8909;-75
2024/01/09 00:09:59;;;;;;;;;41.50;34.25;;;;;-6.11;77.40;99875.66;5028459;28;8875;-74
2024/01/09 00:12:28;;;;;;;;;35.25;32.50;;;;;-6.22;78.08;99878.53;5027976;28;9778;-74
2024/01/09 00:14:57;;;;;;;;;37.75;30.75;;;;;-6.21;78.32;99884.53;5028510;28;8889;-73
2024/01/09 00:17:27;;;;;;;;;37.75;36.50;;;;;-6.16;77.55;99888.19;5028747;28;8852;-74
2024/01/09 00:19:57;;;;;;;;;36.00;31.25;;;;;-6.18;76.84;99884.69;4995348;28;9669;-75
2024/01/09 00:22:25;;;;;;;;;36.25;30.75;;;;;-6.04;77.27;99896.53;4995717;28;8899;-74
2024/01/09 00:24:55;;;;;;;;;35.25;30.75;;;;;-5.64;76.01;99890.84;5051268;28;9713;-75
2024/01/09 00:27:24;;;;;;;;;35.75;30.25;;;;;-5.16;75.33;99895.72;5048900;28;8850;-75
2024/01/09 00:29:53;;;;;;;;;39.50;34.00;;;;;-4.90;73.50;99896.97;5043584;28;8859;-75
2024/01/09 00:32:22;;;;;;;;;38.75;32.25;;;;;-5.11;73.96;99899.38;5030976;28;8863;-75
2024/01/09 00:34:52;;;;;;;;;39.00;33.25;;;;;-5.60;75.35;99910.69;5046301;28;9612;-75
2024/01/09 00:37:21;;;;;;;;;45.25;35.25;;;;;-5.66;75.67;99910.38;5030573;28;8847;-74
2024/01/09 00:39:51;;;;;;;;;26.75;23.50;;;;;-5.81;76.57;99912.19;5037116;28;8865;-75
2024/01/09 00:42:20;;;;;;;;;43.75;38.00;;;;;-5.65;76.64;99913.81;5050688;28;8966;-75
2024/01/09 00:44:49;;;;;;;;;35.75;33.00;;;;;-5.72;76.53;99922.00;5045748;28;9672;-76
2024/01/09 00:47:18;;;;;;;;;43.75;38.25;;;;;-5.72;77.02;99917.72;5030889;28;8851;-75
2024/01/09 00:49:47;;;;;;;;;43.50;35.50;;;;;-5.74;77.23;99918.47;5046130;28;8885;-75
2024/01/09 00:52:17;;;;;;;;;38.50;32.00;;;;;-5.67;76.82;99925.66;5050766;28;8853;-75
2024/01/09 00:54:47;;;;;;;;;37.50;33.75;;;;;-5.54;76.90;99929.72;5050783;28;8853;-75
2024/01/09 00:57:15;;;;;;;;;42.25;36.50;;;;;-5.71;76.77;99936.56;5015222;28;9011;-74
2024/01/09 00:59:47;;;;;;;;;40.00;33.50;;;;;-5.71;77.38;99941.69;5049004;28;8852;-75
2024/01/09 01:02:16;;;;;;;;;42.00;40.00;;;;;-5.88;78.13;99940.81;5048192;28;8990;-73
2024/01/09 01:04:46;;;;;;;;;35.75;33.00;;;;;-5.88;77.42;99946.81;5050397;28;8995;-74
2024/01/09 01:07:14;;;;;;;;;15.00;12.75;;;;;-5.83;77.31;99947.94;5050637;28;8849;-74
2024/01/09 01:09:45;;;;;;;;;40.50;35.25;;;;;-5.72;76.95;99947.59;5050293;28;8950;-75
2024/01/09 01:12:14;;;;;;;;;35.25;29.25;;;;;-5.99;77.76;99948.81;5049785;28;8860;-72
2024/01/09 01:14:43;;;;;;;;;35.00;29.00;;;;;-5.94;77.88;99951.63;5049974;28;8922;-73
2024/01/09 01:17:11;;;;;;;;;38.75;34.75;;;;;-5.90;77.33;99955.22;5067526;28;8937;-72
2024/01/09 01:19:41;;;;;;;;;29.75;28.00;;;;;-5.96;76.38;99960.91;5067439;28;8931;-73
2024/01/09 01:22:10;;;;;;;;;31.25;28.75;;;;;-5.91;76.95;99967.13;5067561;28;8829;-75
2024/01/09 01:24:39;;;;;;;;;34.50;33.25;;;;;-5.89;76.94;99965.56;5067324;28;8923;-73
2024/01/09 01:27:09;;;;;;;;;33.25;31.50;;;;;-5.87;77.20;99966.50;5067493;28;8979;-72
2024/01/09 01:29:38;;;;;;;;;34.50;32.50;;;;;-5.70;77.09;99975.06;5032323;28;9659;-74
2024/01/09 01:32:10;;;;;;;;;27.00;27.00;;;;;-5.74;76.69;99965.44;5067404;28;8931;-72
2024/01/09 01:34:39;;;;;;;;;32.75;31.75;;;;;-5.95;76.84;99972.00;5067103;28;8864;-75
2024/01/09 01:37:08;;;;;;;;;43.00;36.75;;;;;-6.00;77.42;99979.47;5067113;28;9022;-75
2024/01/09 01:39:37;;;;;;;;;33.00;30.75;;;;;-5.97;78.30;99989.84;5067443;28;8865;-73
2024/01/09 01:42:06;;;;;;;;;44.25;36.75;;;;;-5.80;77.06;99978.78;5067401;28;10050;-74
2024/01/09 01:44:36;;;;;;;;;25.50;22.25;;;;;-5.47;75.61;99981.34;5066018;28;8821;-74
2024/01/09 01:47:06;;;;;;;;;40.00;37.75;;;;;-5.82;75.26;99982.09;5067083;28;8876;-73
2024/01/09 01:49:35;;;;;;;;;33.00;30.50;;;;;-5.86;75.18;99978.50;5066659;28;8964;-74
2024/01/09 01:52:05;;;;;;;;;31.00;28.00;;;;;-5.99;76.04;99989.75;5061025;28;8871;-76
2024/01/09 01:54:36;;;;;;;;;36.75;32.25;;;;;-6.09;76.75;99990.09;4998611;28;8826;-76
2024/01/09 01:57:06;;;;;;;;;30.25;27.00;;;;;-5.90;76.46;100002.16;5049412;28;8903;-73
2024/01/09 01:59:41;;;;;;;;;35.75;29.25;;;;;-5.94;75.63;99996.81;5047447;28;8856;-74
2024/01/09 02:02:14;;;;;;;;;38.00;33.75;;;;;-5.68;75.10;99995.59;5049171;28;8873;-74
2024/01/09 02:04:45;;;;;;;;;41.25;33.00;;;;;-5.70;75.83;99994.63;5047798;28;8841;-73
2024/01/09 02:07:14;;;;;;;;;49.50;31.50;;;;;-5.46;73.78;100003.56;5014554;28;8861;-73
2024/01/09 02:09:43;;;;;;;;;41.50;34.25;;;;;-4.85;72.90;99990.38;5048998;28;8869;-73
2024/01/09 02:12:12;;;;;;;;;38.25;31.75;;;;;-4.32;71.70;99991.16;5049225;28;8999;-76
2024/01/09 02:14:42;;;;;;;;;37.50;31.00;;;;;-3.96;70.31;99985.03;5046288;28;8860;-76
2024/01/09 02:17:11;;;;;;;;;30.25;23.75;;;;;-3.58;69.09;99990.97;5047863;28;9583;-74
2024/01/09 02:19:40;;;;;;;;;39.25;30.75;;;;;-3.41;67.50;99995.16;5048881;28;8852;-74
2024/01/09 02:22:09;;;;;;;;;36.25;33.75;;;;;-3.05;66.81;99990.66;5048952;28;8875;-75
2024/01/09 02:24:38;;;;;;;;;38.75;33.25;;;;;-2.80;66.23;99994.22;5014069;28;8861;-75
2024/01/09 02:27:15;;;;;;;;;37.00;34.00;;;;;-2.55;64.92;99988.34;5030358;28;8857;-75
2024/01/09 02:29:49;;;;;;;;;35.75;30.50;;;;;-2.41;64.78;99986.34;5045665;28;8875;-73
2024/01/09 02:32:20;;;;;;;;;33.75;31.25;;;;;-2.34;63.90;99990.00;5046946;28;8872;-73
2024/01/09 02:34:51;;;;;;;;;31.00;28.75;;;;;-2.16;64.07;99995.84;5048438;28;8975;-73
2024/01/09 02:37:20;;;;;;;;;32.75;28.50;;;;;-2.01;63.55;100005.88;5047487;28;8833;-73
2024/01/09 02:39:49;;;;;;;;;33.25;32.00;;;;;-2.68;62.02;100004.13;5046337;28;8852;-72
2024/01/09 02:42:18;;;;;;;;;34.25;28.50;;;;;-2.41;62.07;99998.31;5029949;28;8845;-72
2024/01/09 02:44:53;;;;;;;;;36.75;33.50;;;;;-2.43;61.98;99994.78;5048806;28;8868;-73
2024/01/09 02:47:23;;;;;;;;;32.75;32.25;;;;;-2.68;62.97;99999.84;5031081;28;8847;-73
2024/01/09 02:49:52;;;;;;;;;34.50;34.00;;;;;-3.65;64.63;100002.69;5028749;28;8878;-72
2024/01/09 02:52:21;;;;;;;;;45.25;36.75;;;;;-4.05;66.04;100008.63;5028439;28;8875;-73
2024/01/09 02:54:50;;;;;;;;;48.25;39.25;;;;;-4.75;68.97;100003.66;5027141;28;8836;-73
2024/01/09 02:57:19;;;;;;;;;37.75;34.00;;;;;-4.99;70.23;100014.44;5028186;28;8970;-73
2024/01/09 02:59:49;;;;;;;;;40.75;34.50;;;;;-5.02;70.64;100009.16;5045874;28;8841;-73
2024/01/09 03:02:18;;;;;;;;;39.00;37.25;;;;;-5.04;70.69;100014.25;5034905;28;8978;-72
2024/01/09 03:04:47;;;;;;;;;33.75;33.75;;;;;-5.27;71.58;100015.63;5028631;28;8957;-74
2024/01/09 03:07:16;;;;;;;;;38.00;32.00;;;;;-5.32;71.54;100019.66;5028523;28;8840;-74
2024/01/09 03:09:45;;;;;;;;;39.50;34.75;;;;;-5.51;73.19;100025.53;5028509;28;8847;-73
2024/01/09 03:12:14;;;;;;;;;23.00;19.75;;;;;-5.58;73.67;100031.16;5048151;28;8865;-74
2024/01/09 03:14:43;;;;;;;;;40.25;38.00;;;;;-5.36;73.03;100027.97;5046810;28;8833;-74
2024/01/09 03:17:13;;;;;;;;;37.00;34.00;;;;;-5.43;73.73;100026.81;5033132;28;9141;-75
2024/01/09 03:19:43;;;;;;;;;36.75;32.50;;;;;-5.50;73.83;100028.97;5028731;28;8859;-74
2024/01/09 03:22:11;;;;;;;;;48.50;37.25;;;;;-5.52;74.00;100030.56;5027759;28;8880;-74
2024/01/09 03:24:40;;;;;;;;;34.50;32.00;;;;;-5.90;74.30;100040.56;5047167;28;8853;-75
2024/01/09 03:27:10;;;;;;;;;40.75;37.00;;;;;-5.82;74.40;100039.28;5047856;28;8864;-72
2024/01/09 03:29:40;;;;;;;;;35.25;30.00;;;;;-5.97;75.20;100040.16;5047878;28;8888;-74
2024/01/09 03:32:08;;;;;;;;;34.75;31.75;;;;;-6.10;75.71;100043.75;5027709;28;8985;-75
2024/01/09 03:34:41;;;;;;;;;36.50;33.00;;;;;-5.87;75.07;100047.53;5048197;28;8884;-76
2024/01/09 03:37:13;;;;;;;;;36.00;33.75;;;;;-5.63;73.41;100055.63;5047658;28;8861;-73
2024/01/09 03:39:45;;;;;;;;;37.25;33.25;;;;;-5.85;74.77;100045.91;5047451;28;8879;-73
2024/01/09 03:42:14;;;;;;;;;42.50;37.75;;;;;-6.20;76.01;100056.03;5051499;28;9260;-73
2024/01/09 03:44:43;;;;;;;;;36.75;32.50;;;;;-5.87;75.27;100058.66;5050856;28;8838;-74
2024/01/09 03:47:12;;;;;;;;;49.50;40.50;;;;;-5.25;73.53;100059.28;5043577;28;8944;-73
2024/01/09 03:49:43;;;;;;;;;52.25;44.00;;;;;-4.98;71.48;100057.25;5031865;28;8851;-73
2024/01/09 03:52:12;;;;;;;;;35.75;34.00;;;;;-4.79;70.00;100063.25;5031541;28;9989;-74
2024/01/09 03:54:41;;;;;;;;;37.75;37.00;;;;;-4.63;67.92;100065.78;5033836;28;8855;-74
2024/01/09 03:57:10;;;;;;;;;35.75;33.50;;;;;-5.49;70.39;100075.16;5052202;28;8841;-73
2024/01/09 03:59:39;;;;;;;;;33.25;33.25;;;;;-5.46;71.23;100074.44;5051688;28;8934;-73
2024/01/09 04:02:08;;;;;;;;;38.50;31.50;;;;;-5.27;71.07;100071.13;5047350;28;8910;-73
2024/01/09 04:04:38;;;;;;;;;35.25;31.00;;;;;-5.41;71.22;100084.13;5030696;28;8871;-72
2024/01/09 04:07:09;;;;;;;;;41.75;37.50;;;;;-5.07;70.58;100082.41;5051385;28;8883;-75
2024/01/09 04:09:38;;;;;;;;;41.50;36.25;;;;;-4.64;69.20;100076.84;5051577;28;8861;-73
2024/01/09 04:12:07;;;;;;;;;32.50;31.50;;;;;-4.61;68.66;100085.56;5051267;28;8880;-72
2024/01/09 04:14:36;;;;;;;;;42.00;30.75;;;;;-4.30;68.38;100092.19;5051184;28;8853;-72
2024/01/09 04:17:05;;;;;;;;;42.00;35.50;;;;;-5.03;69.78;100092.88;5048868;28;8883;-73
2024/01/09 04:19:37;;;;;;;;;38.00;33.50;;;;;-4.86;69.68;100091.16;5050880;28;8972;-75
2024/01/09 04:22:08;;;;;;;;;43.00;39.25;;;;;-5.15;70.57;100099.06;5051034;28;8841;-74
2024/01/09 04:24:37;;;;;;;;;37.00;32.00;;;;;-5.19;70.70;100100.59;5015862;28;8849;-74
2024/01/09 04:27:06;;;;;;;;;42.75;39.00;;;;;-4.77;69.28;100102.69;5051581;28;8974;-73
2024/01/09 04:29:36;;;;;;;;;35.50;30.50;;;;;-5.20;70.75;100104.84;5050791;28;8860;-72
2024/01/09 04:32:05;;;;;;;;;39.75;35.00;;;;;-4.88;69.56;100109.84;5049307;28;8845;-72
2024/01/09 04:34:34;;;;;;;;;36.50;34.50;;;;;-4.80;69.87;100113.69;5049819;28;8853;-74
2024/01/09 04:37:03;;;;;;;;;34.75;33.25;;;;;-4.42;68.23;100117.25;5049503;28;8922;-72
2024/01/09 04:39:33;;;;;;;;;34.75;29.00;;;;;-4.71;69.04;100120.97;5015035;28;8856;-74
2024/01/09 04:42:02;;;;;;;;;40.25;34.50;;;;;-5.10;70.20;100134.38;5050620;28;8980;-73
2024/01/09 04:44:31;;;;;;;;;38.50;35.75;;;;;-5.30;71.37;100135.03;5049083;28;8864;-73
2024/01/09 04:47:00;;;;;;;;;42.00;33.00;;;;;-5.25;71.11;100138.72;5049785;28;8849;-73
2024/01/09 04:49:29;;;;;;;;;45.75;37.25;;;;;-5.35;71.61;100137.38;5050098;28;8864;-74
2024/01/09 04:51:58;;;;;;;;;36.00;36.00;;;;;-5.44;71.54;100139.44;5049678;28;8876;-73
2024/01/09 04:54:27;;;;;;;;;41.50;36.50;;;;;-5.65;73.20;100139.19;5050309;28;8849;-73
2024/01/09 04:56:57;;;;;;;;;41.50;40.75;;;;;-5.74;73.37;100151.47;5050342;28;8845;-74
2024/01/09 04:59:28;;;;;;;;;36.75;27.50;;;;;-5.38;72.54;100141.44;5050389;28;8863;-73
2024/01/09 05:01:59;;;;;;;;;49.25;42.50;;;;;-5.44;73.00;100152.25;5050416;28;8837;-72
2024/01/09 05:04:28;;;;;;;;;49.25;40.75;;;;;-5.43;72.72;100154.03;5035162;28;8844;-72
2024/01/09 05:06:57;;;;;;;;;45.25;37.25;;;;;-5.22;71.46;100155.13;5030696;28;8860;-75
2024/01/09 05:09:26;;;;;;;;;35.75;35.50;;;;;-5.36;72.15;100155.22;5030758;28;8851;-74
2024/01/09 05:11:55;;;;;;;;;32.25;26.75;;;;;-5.77;73.76;100157.34;5028870;28;8871;-72
2024/01/09 05:14:25;;;;;;;;;44.50;39.75;;;;;-5.81;73.46;100157.97;5030463;28;8831;-71
2024/01/09 05:16:54;;;;;;;;;43.50;38.75;;;;;-5.61;73.68;100166.72;5030448;28;8843;-74
2024/01/09 05:19:23;;;;;;;;;39.00;35.75;;;;;-5.20;72.35;100168.03;5012441;28;8849;-72
2024/01/09 05:21:52;;;;;;;;;48.50;32.00;;;;;-4.93;71.07;100167.72;5049924;28;8876;-72
2024/01/09 05:24:22;;;;;;;;;43.00;36.50;;;;;-5.33;70.96;100174.19;5050155;28;8868;-73
2024/01/09 05:26:51;;;;;;;;;35.75;34.25;;;;;-4.78;70.83;100170.19;5049535;28;9677;-73
2024/01/09 05:29:20;;;;;;;;;51.75;43.75;;;;;-4.29;69.40;100173.50;5049929;28;8943;-73
2024/01/09 05:31:50;;;;;;;;;75.00;60.75;;;;;-3.84;69.06;100176.50;5031244;28;8872;-73
2024/01/09 05:34:19;;;;;;;;;40.50;38.00;;;;;-3.46;67.71;100168.84;5048773;28;8864;-73
2024/01/09 05:36:49;;;;;;;;;46.50;42.50;;;;;-3.17;66.98;100175.28;5049647;28;8995;-73
2024/01/09 05:39:18;;;;;;;;;34.25;29.75;;;;;-2.86;66.15;100174.06;5050124;28;8861;-72
2024/01/09 05:41:47;;;;;;;;;39.75;35.75;;;;;-2.58;66.00;100171.00;5049445;28;9610;-71
2024/01/09 05:44:17;;;;;;;;;48.75;40.75;;;;;-2.41;64.64;100168.22;5049633;28;8864;-73
2024/01/09 05:46:46;;;;;;;;;54.00;46.75;;;;;-2.21;63.66;100175.06;5049543;28;8845;-72
2024/01/09 05:49:16;;;;;;;;;56.75;48.25;;;;;-2.15;62.73;100177.00;5040239;28;8873;-72
2024/01/09 05:51:45;;;;;;;;;51.75;46.50;;;;;-2.09;62.06;100183.31;5028999;28;8864;-73
2024/01/09 05:54:14;;;;;;;;;59.50;50.25;;;;;-1.93;62.16;100181.34;5034659;28;8894;-73
2024/01/09 05:56:43;;;;;;;;;45.00;37.50;;;;;-1.75;61.45;100189.81;5049124;28;8966;-72
2024/01/09 05:59:12;;;;;;;;;39.75;39.75;;;;;-1.66;61.18;100185.81;5049023;28;8864;-75
2024/01/09 06:01:41;;;;;;;;;47.00;43.50;;;;;-1.58;61.58;100193.03;5043945;28;8994;-73
2024/01/09 06:04:10;;;;;;;;;46.00;41.00;;;;;-1.51;61.04;100195.00;5029662;28;8895;-73
2024/01/09 06:06:40;;;;;;;;;48.25;42.75;;;;;-2.34;60.14;100202.00;5041538;28;8907;-74
2024/01/09 06:09:10;;;;;;;;;47.25;42.50;;;;;-2.76;61.05;100209.66;5047060;28;8883;-72
2024/01/09 06:11:38;;;;;;;;;38.00;35.25;;;;;-3.31;62.95;100210.66;5030262;28;8865;-74
2024/01/09 06:14:08;;;;;;;;;48.00;42.50;;;;;-3.89;64.66;100218.19;5028313;28;9011;-72
2024/01/09 06:16:36;;;;;;;;;50.00;42.75;;;;;-4.56;67.16;100226.03;4993811;28;8861;-73
2024/01/09 06:19:05;;;;;;;;;40.50;35.00;;;;;-4.96;68.45;100227.41;5030961;28;8871;-73
2024/01/09 06:21:34;;;;;;;;;37.25;34.00;;;;;-4.95;69.49;100228.28;5028406;28;8929;-73
2024/01/09 06:24:05;;;;;;;;;48.00;39.50;;;;;-5.34;70.27;100240.72;5028656;28;8884;-72
2024/01/09 06:26:34;;;;;;;;;41.25;38.50;;;;;-5.38;70.38;100246.50;5043834;28;8880;-73
2024/01/09 06:29:05;;;;;;;;;51.00;43.25;;;;;-5.48;70.53;100245.97;5048327;28;8880;-74
2024/01/09 06:31:34;;;;;;;;;34.75;26.00;;;;;-5.45;71.24;100258.09;5048219;28;8861;-73
2024/01/09 06:34:03;;;;;;;;;32.75;31.00;;;;;-5.44;71.49;100259.84;5045636;28;8841;-73
2024/01/09 06:36:32;;;;;;;;;70.00;52.50;;;;;-5.46;71.92;100264.88;5043114;28;10058;-73
2024/01/09 06:39:01;;;;;;;;;63.75;48.75;;;;;-5.42;71.54;100274.53;5032706;28;8923;-72
2024/01/09 06:41:31;;;;;;;;;84.50;67.00;;;;;-5.09;70.41;100269.47;5046293;28;8872;-74
2024/01/09 06:44:00;;;;;;;;;47.00;43.75;;;;;-4.73;68.21;100268.78;5038637;28;8865;-75
2024/01/09 06:46:29;;;;;;;;;57.25;50.75;;;;;-5.15;70.15;100273.34;5043005;28;8841;-75
2024/01/09 06:48:58;;;;;;;;;46.50;36.50;;;;;-5.36;70.49;100267.94;5027884;28;8864;-73
2024/01/09 06:51:29;;;;;;;;;42.00;39.00;;;;;-5.41;71.80;100266.03;5045388;28;8868;-73
2024/01/09 06:53:58;;;;;;;;;43.50;34.50;;;;;-5.32;71.09;100269.88;5013651;28;8900;-73
2024/01/09 06:56:27;;;;;;;;;41.75;38.00;;;;;-5.45;70.84;100274.34;5029427;28;8966;-75
2024/01/09 06:58:57;;;;;;;;;68.75;53.50;;;;;-5.37;71.75;100274.75;5048072;28;8836;-74
2024/01/09 07:01:27;;;;;;;;;52.25;44.75;;;;;-5.54;72.81;100290.88;5030890;28;8861;-73
2024/01/09 07:03:56;;;;;;;;;55.25;47.50;;;;;-5.27;72.39;100288.97;5028256;28;9694;-75
2024/01/09 07:06:25;;;;;;;;;77.25;59.50;;;;;-5.02;71.17;100286.03;5027836;28;8875;-72
2024/01/09 07:08:54;;;;;;;;;74.00;60.00;;;;;-4.56;69.80;100285.91;5043406;28;8811;-73
2024/01/09 07:11:23;;;;;;;;;67.50;53.50;;;;;-4.59;69.92;100292.56;5058384;28;8901;-73
2024/01/09 07:13:53;;;;;;;;;57.50;48.50;;;;;-4.90;70.68;100301.22;5049462;28;8888;-74
2024/01/09 07:16:24;;;;;;;;;81.50;66.75;;;;;-4.26;69.05;100303.69;5012880;28;8857;-72
2024/01/09 07:18:53;;;;;;;;;77.00;62.50;;;;;-4.14;67.69;100311.13;5045545;28;8868;-74
2024/01/09 07:21:22;;;;;;;;;66.00;53.25;;;;;-3.75;67.07;100324.19;5042007;28;8857;-75
2024/01/09 07:23:51;;;;;;;;;60.00;49.75;;;;;-3.58;66.12;100322.44;5046372;28;8868;-76
2024/01/09 07:26:20;;;;;;;;;64.00;52.50;;;;;-3.18;65.62;100324.38;5047942;28;8849;-75
2024/01/09 07:28:50;;;;;;;;;70.50;53.00;;;;;-3.07;64.61;100315.47;5034430;28;8849;-73
2024/01/09 07:31:19;;;;;;;;;58.25;49.50;;;;;-3.52;64.88;100325.31;5048226;28;8861;-75
2024/01/09 07:33:50;;;;;;;;;68.00;54.25;;;;;-3.15;64.96;100322.81;4997015;28;9745;-73
2024/01/09 07:36:19;;;;;;;;;55.50;49.00;;;;;-2.91;64.04;100317.91;5047844;28;8995;-74
2024/01/09 07:38:50;;;;;;;;;65.50;51.75;;;;;-2.83;63.48;100318.25;5029291;28;8868;-76
2024/01/09 07:41:19;;;;;;;;;50.33;44.33;;;;;-2.57;62.68;100322.00;5033955;28;8861;-74
2024/01/09 07:43:48;;;;;;;;;60.00;49.25;;;;;-2.40;62.79;100325.34;5047772;28;8853;-75
2024/01/09 07:46:17;;;;;;;;;58.25;49.75;;;;;-2.13;62.20;100327.34;5029109;28;8865;-73
2024/01/09 07:48:46;;;;;;;;;54.25;46.25;;;;;-2.07;61.03;100332.78;5047294;28;8871;-73
2024/01/09 07:51:17;;;;;;;;;54.50;47.75;;;;;-2.02;60.70;100339.00;5032131;28;8861;-73
2024/01/09 07:53:46;;;;;;;;;59.00;47.00;;;;;-1.81;60.90;100339.00;5047318;28;8875;-75
2024/01/09 07:56:17;;;;;;;;;49.00;44.25;;;;;-2.55;62.20;100338.41;5013279;28;8853;-72
2024/01/09 07:58:47;;;;;;;;;57.75;49.00;;;;;-2.11;61.85;100346.31;5034619;28;8841;-74
2024/01/09 08:01:18;;;;;;;;;56.25;47.75;;;;;-1.79;61.69;100350.25;5031242;28;9610;-76
2024/01/09 08:03:48;;;;;;;;;50.75;44.00;;;;;-1.71;60.97;100353.19;5048039;28;8849;-75
2024/01/09 08:06:18;;;;;;;;;48.75;44.75;;;;;-1.84;59.54;100356.03;5013013;28;8857;-75
2024/01/09 08:08:47;;;;;;;;;55.00;47.75;;;;;-2.33;60.17;100358.28;5037767;28;9687;-75
2024/01/09 08:11:18;;;;;;;;;56.75;49.75;;;;;-3.03;62.29;100376.53;5040645;28;8905;-79
2024/01/09 08:13:48;;;;;;;;;54.25;48.25;;;;;-3.93;65.74;100378.09;5038918;28;8889;-78
2024/01/09 08:16:17;;;;;;;;;67.50;53.50;;;;;-4.34;68.53;100399.94;5047857;28;8865;-79
2024/01/09 08:18:46;;;;;;;;;66.50;53.50;;;;;-4.88;69.34;100405.63;5045815;28;8950;-76
2024/01/09 08:21:15;;;;;;;;;64.50;51.00;;;;;-4.50;68.81;100405.94;5012548;28;8981;-73
2024/01/09 08:23:45;;;;;;;;;50.25;46.50;;;;;-4.03;67.28;100410.13;5046177;28;8977;-75
2024/01/09 08:26:14;;;;;;;;;54.75;46.75;;;;;-3.55;65.69;100415.13;5045911;28;9622;-74
2024/01/09 08:28:43;;;;;;;;;51.50;45.00;;;;;-3.53;64.80;100421.22;5049491;28;9038;-74
2024/01/09 08:31:12;;;;;;;;;44.75;42.25;;;;;-3.31;64.01;100433.44;5051049;28;8884;-73
2024/01/09 08:33:41;;;;;;;;;49.00;43.00;;;;;-3.16;63.35;100441.03;5050634;28;8873;-76
2024/01/09 08:36:11;;;;;;;;;55.25;47.50;;;;;-2.95;62.25;100449.78;5015126;28;8911;-75
2024/01/09 08:38:40;;;;;;;;;60.75;46.75;;;;;-3.44;62.91;100450.81;5031718;28;8877;-74
2024/01/09 08:41:11;;;;;;;;;60.25;49.00;;;;;-4.06;66.20;100466.44;5050849;28;8880;-74
2024/01/09 08:43:40;;;;;;;;;58.50;48.25;;;;;-4.65;68.35;100473.56;5015066;28;8853;-77
2024/01/09 08:46:09;;;;;;;;;46.50;43.50;;;;;-4.14;67.51;100478.88;5050676;28;8999;-74
2024/01/09 08:48:38;;;;;;;;;60.75;51.75;;;;;-4.70;69.33;100482.72;5065978;28;8873;-75
2024/01/09 08:51:07;;;;;;;;;62.75;49.50;;;;;-4.88;69.36;100479.13;5050859;28;8892;-74
2024/01/09 08:53:44;;;;;;;;;66.00;51.50;;;;;-4.81;69.38;100488.94;5034880;28;8871;-74
2024/01/09 08:56:14;;;;;;;;;56.50;45.25;;;;;-4.51;68.22;100501.66;5050387;28;8861;-73
2024/01/09 08:58:43;;;;;;;;;61.75;48.25;;;;;-3.97;67.09;100496.88;5050488;28;8946;-74
2024/01/09 09:01:12;;;;;;;;;40.25;38.25;;;;;-3.45;66.08;100499.56;5032123;28;8987;-75
2024/01/09 09:03:42;;;;;;;;;57.25;48.75;;;;;-3.00;65.05;100501.81;5048937;28;8857;-74
2024/01/09 09:06:11;;;;;;;;;63.75;54.00;;;;;-3.92;64.76;100514.31;5049281;28;8857;-74
2024/01/09 09:08:40;;;;;;;;;63.00;51.25;;;;;-4.44;67.69;100522.63;5050606;28;8837;-75
2024/01/09 09:11:09;;;;;;;;;42.25;41.25;;;;;-4.76;67.88;100522.50;5016956;28;8873;-74
2024/01/09 09:13:39;;;;;;;;;54.75;46.00;;;;;-4.75;68.27;100521.72;5050484;28;8961;-72
2024/01/09 09:16:09;;;;;;;;;65.75;53.50;;;;;-4.64;68.72;100523.22;5050452;28;8889;-73
2024/01/09 09:18:38;;;;;;;;;83.25;65.50;;;;;-4.82;68.36;100520.50;5050278;28;8873;-75
2024/01/09 09:21:07;;;;;;;;;70.50;55.00;;;;;-5.16;70.54;100522.81;5049592;28;8857;-74
2024/01/09 09:23:38;;;;;;;;;71.25;55.25;;;;;-5.18;70.53;100516.72;5050170;28;8841;-73
2024/01/09 09:26:07;;;;;;;;;57.25;49.25;;;;;-5.31;71.54;100533.03;5050056;28;8864;-73
2024/01/09 09:28:36;;;;;;;;;70.00;54.25;;;;;-5.35;72.13;100539.66;5049933;28;8841;-73
2024/01/09 09:31:24;;;;;;;;;67.25;50.00;;;;;-4.63;70.87;100538.69;5039502;28;8857;-75
2024/01/09 09:33:53;;;;;;;;;63.00;49.00;;;;;-4.08;69.45;100537.38;5048416;28;8861;-74
2024/01/09 09:36:22;;;;;;;;;59.75;46.50;;;;;-3.57;67.80;100534.94;5065212;28;8926;-74
2024/01/09 09:38:53;;;;;;;;;69.50;56.25;;;;;-4.05;67.17;100545.28;5049445;28;8853;-75
2024/01/09 09:41:23;;;;;;;;;31.50;28.50;;;;;-4.24;67.56;100543.38;5031060;28;8861;-75
2024/01/09 09:43:57;;;;;;;;;70.50;56.50;;;;;-4.00;67.48;100543.81;5049453;28;8861;-74
2024/01/09 09:46:30;;;;;;;;;67.75;51.75;;;;;-3.94;66.39;100544.16;5049504;28;8884;-73
2024/01/09 09:49:00;;;;;;;;;66.75;54.25;;;;;-4.01;65.91;100539.50;5048155;28;8853;-74
2024/01/09 09:51:29;;;;;;;;;56.75;48.25;;;;;-4.14;66.85;100549.91;5046830;28;8885;-74
2024/01/09 09:53:59;;;;;;;;;69.25;57.00;;;;;-3.42;66.07;100540.88;5049717;28;8877;-76
2024/01/09 09:56:28;;;;;;;;;68.00;55.50;;;;;-3.12;64.75;100541.53;5049507;28;9649;-74
2024/01/09 09:58:58;;;;;;;;;66.25;54.00;;;;;-2.87;63.93;100541.06;5049027;28;8942;-73
2024/01/09 10:01:30;;;;;;;;;67.00;52.25;;;;;-2.37;63.49;100540.91;5035866;28;8865;-73
2024/01/09 10:04:03;;;;;;;;;54.50;45.50;;;;;-2.05;62.67;100544.97;5049661;28;8865;-73
2024/01/09 10:06:35;;;;;;;;;64.00;51.50;;;;;-1.82;62.48;100540.88;5048912;28;8857;-74
2024/01/09 10:09:10;;;;;;;;;71.75;56.75;;;;;-1.48;62.07;100534.63;5047553;28;8951;-74
2024/01/09 10:11:38;;;;;;;;;71.25;57.25;;;;;-1.33;60.86;100534.44;5044623;28;8840;-75
2024/01/09 10:14:09;;;;;;;;;66.50;53.50;;;;;-1.13;59.88;100530.97;5049159;28;8978;-75
2024/01/09 10:16:53;;;;;;;;;66.75;54.50;;;;;-0.83;59.71;100524.47;5048421;28;8844;-75
2024/01/09 10:19:23;;;;;;;;;53.75;47.75;;;;;-1.99;60.06;100540.09;5049190;28;8869;-74
2024/01/09 10:21:52;;;;;;;;;67.50;56.00;;;;;-2.31;61.19;100542.06;5048788;28;8853;-76
2024/01/09 10:24:21;;;;;;;;;66.25;56.00;;;;;-2.18;59.96;100545.22;5048810;28;8938;-76
2024/01/09 10:26:52;;;;;;;;;73.00;57.75;;;;;-2.25;61.09;100543.16;5047656;28;8857;-76
2024/01/09 10:29:22;;;;;;;;;61.75;52.75;;;;;-1.93;60.34;100545.53;5054473;28;8841;-74
2024/01/09 10:31:53;;;;;;;;;65.25;53.25;;;;;-1.53;60.64;100542.16;5048430;28;9774;-75
2024/01/09 10:34:22;;;;;;;;;71.50;59.75;;;;;-1.25;60.17;100538.19;5048784;28;8841;-75
2024/01/09 10:36:53;;;;;;;;;72.50;58.50;;;;;-0.99;59.47;100541.88;5048635;28;8856;-75
2024/01/09 10:39:22;;;;;;;;;70.25;57.50;;;;;-0.79;58.76;100534.09;5049238;28;8834;-74
2024/01/09 10:41:51;;;;;;;;;78.25;61.75;;;;;-1.80;58.06;100544.41;5048902;28;8891;-75
2024/01/09 10:44:20;;;;;;;;;69.75;56.00;;;;;-1.77;59.32;100547.13;5047441;28;9567;-75
2024/01/09 10:46:50;;;;;;;;;69.75;55.75;;;;;-2.03;59.20;100550.16;5048683;28;8857;-75
2024/01/09 10:49:23;;;;;;;;;78.75;62.75;;;;;-1.88;59.51;100544.03;5047946;28;8934;-75
2024/01/09 10:51:54;;;;;;;;;73.50;56.75;;;;;-1.98;58.86;100556.44;5048998;28;8865;-75
2024/01/09 10:54:24;;;;;;;;;69.50;55.00;;;;;-2.63;60.58;100555.97;5001911;28;8905;-73
2024/01/09 10:56:54;;;;;;;;;71.25;55.50;;;;;-3.38;62.95;100563.34;5051452;28;8954;-75
2024/01/09 10:59:24;;;;;;;;;76.25;59.00;;;;;-3.41;63.73;100562.31;5047045;28;8884;-74
2024/01/09 11:01:53;;;;;;;;;74.50;56.75;;;;;-3.47;64.06;100565.44;5048432;28;8874;-74
2024/01/09 11:04:24;;;;;;;;;67.75;56.75;;;;;-2.94;62.87;100553.56;5047935;28;8966;-73
2024/01/09 11:06:54;;;;;;;;;72.50;57.75;;;;;-2.57;61.69;100555.38;5048550;28;8861;-75
2024/01/09 11:09:25;;;;;;;;;75.00;59.50;;;;;-2.31;60.59;100562.66;5048548;28;8958;-75
2024/01/09 11:11:54;;;;;;;;;78.25;59.50;;;;;-2.74;62.06;100563.16;5036218;28;8849;-74
2024/01/09 11:14:25;;;;;;;;;73.25;58.00;;;;;-2.20;61.76;100570.00;5048542;28;8848;-74
2024/01/09 11:16:56;;;;;;;;;64.75;53.25;;;;;-1.80;61.53;100564.13;5048487;28;8925;-76
2024/01/09 11:19:26;;;;;;;;;69.25;56.50;;;;;-1.49;60.58;100559.50;5029874;28;8978;-74
2024/01/09 11:21:55;;;;;;;;;77.50;61.25;;;;;-1.23;59.77;100570.09;5048293;28;8865;-75
2024/01/09 11:24:25;;;;;;;;;76.75;61.00;;;;;-0.94;58.98;100562.72;5048271;28;8825;-73
2024/01/09 11:27:12;;;;;;;;;80.75;62.50;;;;;-0.99;58.33;100559.09;5048054;28;8868;-75
2024/01/09 11:29:49;;;;;;;;;80.25;63.75;;;;;-0.80;58.42;100569.34;5039049;28;8861;-75